sensor_id;sensor_type;location;lat;lon;timestamp;temperature;humidity
31129;DHT22;17777;48.770;8.944;2023-07-31T00:01:32;23.30;42.20
31129;DHT22;17777;48.770;8.944;2023-07-31T00:03:58;23.20;42.20
31129;DHT22;17777;48.770;8.944;2023-07-31T00:06:23;23.20;42.20
31129;DHT22;17777;48.770;8.944;2023-07-31T00:08:49;23.20;42.20
31129;DHT22;17777;48.770;8.944;2023-07-31T00:11:15;23.20;42.30
31129;DHT22;17777;48.770;8.944;2023-07-31T00:13:40;23.20;42.30
31129;DHT22;17777;48.770;8.944;2023-07-31T00:16:06;23.20;42.40
31129;DHT22;17777;48.770;8.944;2023-07-31T00:18:32;23.10;42.40
31129;DHT22;17777;48.770;8.944;2023-07-31T00:20:58;23.10;42.40
31129;DHT22;17777;48.770;8.944;2023-07-31T00:23:23;23.10;42.50
31129;DHT22;17777;48.770;8.944;2023-07-31T00:25:49;23.10;42.60
31129;DHT22;17777;48.770;8.944;2023-07-31T00:28:15;23.00;42.60
31129;DHT22;17777;48.770;8.944;2023-07-31T00:30:41;23.00;42.60
31129;DHT22;17777;48.770;8.944;2023-07-31T00:33:06;23.00;42.70
31129;DHT22;17777;48.770;8.944;2023-07-31T00:35:32;23.00;42.80
31129;DHT22;17777;48.770;8.944;2023-07-31T00:37:58;22.90;42.70
31129;DHT22;17777;48.770;8.944;2023-07-31T00:40:24;22.90;42.80
31129;DHT22;17777;48.770;8.944;2023-07-31T00:42:50;22.90;42.80
31129;DHT22;17777;48.770;8.944;2023-07-31T00:45:16;22.90;42.90
31129;DHT22;17777;48.770;8.944;2023-07-31T00:47:42;22.90;42.90
31129;DHT22;17777;48.770;8.944;2023-07-31T00:50:08;22.90;42.90
31129;DHT22;17777;48.770;8.944;2023-07-31T00:52:34;22.80;42.90
31129;DHT22;17777;48.770;8.944;2023-07-31T00:55:01;22.80;43.00
31129;DHT22;17777;48.770;8.944;2023-07-31T00:57:27;22.80;43.00
31129;DHT22;17777;48.770;8.944;2023-07-31T00:59:52;22.80;43.10
31129;DHT22;17777;48.770;8.944;2023-07-31T01:02:19;22.80;43.10
31129;DHT22;17777;48.770;8.944;2023-07-31T01:04:45;22.70;43.20
31129;DHT22;17777;48.770;8.944;2023-07-31T01:07:29;22.70;43.20
31129;DHT22;17777;48.770;8.944;2023-07-31T01:10:20;22.70;43.50
31129;DHT22;17777;48.770;8.944;2023-07-31T01:12:51;22.70;43.50
31129;DHT22;17777;48.770;8.944;2023-07-31T01:15:17;22.70;43.30
31129;DHT22;17777;48.770;8.944;2023-07-31T01:17:43;22.70;43.40
31129;DHT22;17777;48.770;8.944;2023-07-31T01:20:25;22.70;43.40
31129;DHT22;17777;48.770;8.944;2023-07-31T01:26:21;22.60;43.70
31129;DHT22;17777;48.770;8.944;2023-07-31T01:29:01;22.60;43.80
31129;DHT22;17777;48.770;8.944;2023-07-31T01:31:36;22.60;43.60
31129;DHT22;17777;48.770;8.944;2023-07-31T01:34:03;22.60;43.40
31129;DHT22;17777;48.770;8.944;2023-07-31T01:36:30;22.60;43.50
31129;DHT22;17777;48.770;8.944;2023-07-31T01:39:00;22.50;43.50
31129;DHT22;17777;48.770;8.944;2023-07-31T01:41:27;22.50;43.70
31129;DHT22;17777;48.770;8.944;2023-07-31T01:43:53;22.50;43.70
31129;DHT22;17777;48.770;8.944;2023-07-31T01:46:19;22.50;43.60
31129;DHT22;17777;48.770;8.944;2023-07-31T01:48:45;22.50;43.80
31129;DHT22;17777;48.770;8.944;2023-07-31T01:51:10;22.50;43.80
31129;DHT22;17777;48.770;8.944;2023-07-31T01:53:36;22.40;43.80
31129;DHT22;17777;48.770;8.944;2023-07-31T01:56:02;22.40;43.80
31129;DHT22;17777;48.770;8.944;2023-07-31T01:58:30;22.40;43.90
31129;DHT22;17777;48.770;8.944;2023-07-31T02:00:55;22.40;43.90
31129;DHT22;17777;48.770;8.944;2023-07-31T02:03:21;22.30;43.90
31129;DHT22;17777;48.770;8.944;2023-07-31T02:05:48;22.30;44.00
31129;DHT22;17777;48.770;8.944;2023-07-31T02:08:15;22.30;44.10
31129;DHT22;17777;48.770;8.944;2023-07-31T02:10:41;22.30;44.20
31129;DHT22;17777;48.770;8.944;2023-07-31T02:13:07;22.30;44.20
31129;DHT22;17777;48.770;8.944;2023-07-31T02:15:33;22.30;44.20
31129;DHT22;17777;48.770;8.944;2023-07-31T02:17:59;22.30;44.30
31129;DHT22;17777;48.770;8.944;2023-07-31T02:20:25;22.20;44.30
31129;DHT22;17777;48.770;8.944;2023-07-31T02:22:51;22.20;44.30
31129;DHT22;17777;48.770;8.944;2023-07-31T02:25:17;22.20;44.30
31129;DHT22;17777;48.770;8.944;2023-07-31T02:27:44;22.20;44.30
31129;DHT22;17777;48.770;8.944;2023-07-31T02:30:11;22.20;44.40
31129;DHT22;17777;48.770;8.944;2023-07-31T02:32:36;22.20;44.40
31129;DHT22;17777;48.770;8.944;2023-07-31T02:35:02;22.20;44.40
31129;DHT22;17777;48.770;8.944;2023-07-31T02:37:28;22.20;44.50
31129;DHT22;17777;48.770;8.944;2023-07-31T02:39:55;22.20;44.50
31129;DHT22;17777;48.770;8.944;2023-07-31T02:42:21;22.20;44.60
31129;DHT22;17777;48.770;8.944;2023-07-31T02:44:46;22.20;44.60
31129;DHT22;17777;48.770;8.944;2023-07-31T02:47:12;22.20;44.60
31129;DHT22;17777;48.770;8.944;2023-07-31T02:49:38;22.20;44.60
31129;DHT22;17777;48.770;8.944;2023-07-31T02:52:04;22.20;44.60
31129;DHT22;17777;48.770;8.944;2023-07-31T02:54:30;22.20;44.60
31129;DHT22;17777;48.770;8.944;2023-07-31T02:56:56;22.20;44.60
31129;DHT22;17777;48.770;8.944;2023-07-31T02:59:21;22.10;44.50
31129;DHT22;17777;48.770;8.944;2023-07-31T03:01:47;22.10;44.50
31129;DHT22;17777;48.770;8.944;2023-07-31T03:04:13;22.10;44.60
31129;DHT22;17777;48.770;8.944;2023-07-31T03:06:39;22.10;44.60
31129;DHT22;17777;48.770;8.944;2023-07-31T03:09:05;22.10;44.60
31129;DHT22;17777;48.770;8.944;2023-07-31T03:11:31;22.00;44.60
31129;DHT22;17777;48.770;8.944;2023-07-31T03:13:57;22.00;44.60
31129;DHT22;17777;48.770;8.944;2023-07-31T03:16:23;22.00;44.70
31129;DHT22;17777;48.770;8.944;2023-07-31T03:18:49;22.00;44.80
31129;DHT22;17777;48.770;8.944;2023-07-31T03:21:14;22.00;44.90
31129;DHT22;17777;48.770;8.944;2023-07-31T03:23:41;21.90;44.90
31129;DHT22;17777;48.770;8.944;2023-07-31T03:26:09;21.90;44.90
31129;DHT22;17777;48.770;8.944;2023-07-31T03:28:35;21.90;44.90
31129;DHT22;17777;48.770;8.944;2023-07-31T03:31:01;21.90;44.90
31129;DHT22;17777;48.770;8.944;2023-07-31T03:33:29;21.90;45.00
31129;DHT22;17777;48.770;8.944;2023-07-31T03:35:55;21.90;45.00
31129;DHT22;17777;48.770;8.944;2023-07-31T03:38:21;21.90;44.90
31129;DHT22;17777;48.770;8.944;2023-07-31T03:40:47;21.90;44.90
31129;DHT22;17777;48.770;8.944;2023-07-31T03:43:13;21.90;44.90
31129;DHT22;17777;48.770;8.944;2023-07-31T03:45:39;21.90;44.90
31129;DHT22;17777;48.770;8.944;2023-07-31T03:48:05;21.90;45.00
31129;DHT22;17777;48.770;8.944;2023-07-31T03:50:31;21.90;45.00
31129;DHT22;17777;48.770;8.944;2023-07-31T03:52:57;21.90;45.00
31129;DHT22;17777;48.770;8.944;2023-07-31T03:55:22;21.90;45.00
31129;DHT22;17777;48.770;8.944;2023-07-31T03:57:48;21.90;45.00
31129;DHT22;17777;48.770;8.944;2023-07-31T04:00:14;21.90;45.10
31129;DHT22;17777;48.770;8.944;2023-07-31T04:02:40;21.80;45.00
31129;DHT22;17777;48.770;8.944;2023-07-31T04:05:07;21.80;45.00
31129;DHT22;17777;48.770;8.944;2023-07-31T04:07:33;21.90;45.10
31129;DHT22;17777;48.770;8.944;2023-07-31T04:09:59;21.90;45.10
31129;DHT22;17777;48.770;8.944;2023-07-31T04:12:25;21.90;45.10
31129;DHT22;17777;48.770;8.944;2023-07-31T04:14:51;21.80;45.10
31129;DHT22;17777;48.770;8.944;2023-07-31T04:17:18;21.80;45.90
31129;DHT22;17777;48.770;8.944;2023-07-31T04:19:44;21.80;45.10
31129;DHT22;17777;48.770;8.944;2023-07-31T04:22:09;21.80;45.10
31129;DHT22;17777;48.770;8.944;2023-07-31T04:24:35;21.80;45.10
31129;DHT22;17777;48.770;8.944;2023-07-31T04:27:01;21.80;45.20
31129;DHT22;17777;48.770;8.944;2023-07-31T04:29:27;21.80;45.20
31129;DHT22;17777;48.770;8.944;2023-07-31T04:31:52;21.80;45.20
31129;DHT22;17777;48.770;8.944;2023-07-31T04:34:18;21.80;45.30
31129;DHT22;17777;48.770;8.944;2023-07-31T04:36:44;21.80;45.30
31129;DHT22;17777;48.770;8.944;2023-07-31T04:39:10;21.80;45.30
31129;DHT22;17777;48.770;8.944;2023-07-31T04:41:35;21.80;45.40
31129;DHT22;17777;48.770;8.944;2023-07-31T04:44:01;21.80;45.40
31129;DHT22;17777;48.770;8.944;2023-07-31T04:46:29;21.90;45.50
31129;DHT22;17777;48.770;8.944;2023-07-31T04:48:55;21.90;45.50
31129;DHT22;17777;48.770;8.944;2023-07-31T04:51:21;21.90;45.50
31129;DHT22;17777;48.770;8.944;2023-07-31T04:53:47;21.90;45.50
31129;DHT22;17777;48.770;8.944;2023-07-31T04:56:12;21.90;45.50
31129;DHT22;17777;48.770;8.944;2023-07-31T04:58:39;21.90;45.60
31129;DHT22;17777;48.770;8.944;2023-07-31T05:01:05;21.90;45.60
31129;DHT22;17777;48.770;8.944;2023-07-31T05:03:30;21.90;45.50
31129;DHT22;17777;48.770;8.944;2023-07-31T05:05:56;21.90;45.60
31129;DHT22;17777;48.770;8.944;2023-07-31T05:08:22;21.90;45.60
31129;DHT22;17777;48.770;8.944;2023-07-31T05:10:48;21.90;45.70
31129;DHT22;17777;48.770;8.944;2023-07-31T05:13:14;21.90;45.60
31129;DHT22;17777;48.770;8.944;2023-07-31T05:15:41;21.90;45.70
31129;DHT22;17777;48.770;8.944;2023-07-31T05:18:07;21.90;45.80
31129;DHT22;17777;48.770;8.944;2023-07-31T05:20:33;21.90;45.70
31129;DHT22;17777;48.770;8.944;2023-07-31T05:22:58;21.90;45.70
31129;DHT22;17777;48.770;8.944;2023-07-31T05:25:24;22.00;45.90
31129;DHT22;17777;48.770;8.944;2023-07-31T05:27:50;22.00;45.90
31129;DHT22;17777;48.770;8.944;2023-07-31T05:30:16;22.00;45.80
31129;DHT22;17777;48.770;8.944;2023-07-31T05:32:41;22.00;45.80
31129;DHT22;17777;48.770;8.944;2023-07-31T05:35:07;22.00;45.90
31129;DHT22;17777;48.770;8.944;2023-07-31T05:37:34;22.00;45.90
31129;DHT22;17777;48.770;8.944;2023-07-31T05:40:00;22.00;46.00
31129;DHT22;17777;48.770;8.944;2023-07-31T05:42:26;22.00;45.90
31129;DHT22;17777;48.770;8.944;2023-07-31T05:44:52;22.00;46.00
31129;DHT22;17777;48.770;8.944;2023-07-31T05:47:17;22.10;46.10
31129;DHT22;17777;48.770;8.944;2023-07-31T05:49:43;22.10;46.10
31129;DHT22;17777;48.770;8.944;2023-07-31T05:52:09;22.10;46.10
31129;DHT22;17777;48.770;8.944;2023-07-31T05:54:35;22.10;46.10
31129;DHT22;17777;48.770;8.944;2023-07-31T05:57:01;22.10;46.10
31129;DHT22;17777;48.770;8.944;2023-07-31T05:59:27;22.10;46.20
31129;DHT22;17777;48.770;8.944;2023-07-31T06:01:53;22.20;46.20
31129;DHT22;17777;48.770;8.944;2023-07-31T06:04:19;22.20;46.20
31129;DHT22;17777;48.770;8.944;2023-07-31T06:06:44;22.20;46.20
31129;DHT22;17777;48.770;8.944;2023-07-31T06:09:10;22.20;46.20
31129;DHT22;17777;48.770;8.944;2023-07-31T06:11:37;22.20;46.20
31129;DHT22;17777;48.770;8.944;2023-07-31T06:14:03;22.20;46.10
31129;DHT22;17777;48.770;8.944;2023-07-31T06:16:28;22.20;46.10
31129;DHT22;17777;48.770;8.944;2023-07-31T06:18:54;22.30;46.10
31129;DHT22;17777;48.770;8.944;2023-07-31T06:21:20;22.30;46.20
31129;DHT22;17777;48.770;8.944;2023-07-31T06:23:46;22.30;46.10
31129;DHT22;17777;48.770;8.944;2023-07-31T06:26:11;22.30;46.10
31129;DHT22;17777;48.770;8.944;2023-07-31T06:28:37;22.30;46.10
31129;DHT22;17777;48.770;8.944;2023-07-31T06:31:03;22.30;46.10
31129;DHT22;17777;48.770;8.944;2023-07-31T06:33:29;22.30;46.10
31129;DHT22;17777;48.770;8.944;2023-07-31T06:35:54;22.30;46.10
31129;DHT22;17777;48.770;8.944;2023-07-31T06:38:24;22.40;46.20
31129;DHT22;17777;48.770;8.944;2023-07-31T06:40:51;22.40;46.40
31129;DHT22;17777;48.770;8.944;2023-07-31T06:43:17;22.50;46.30
31129;DHT22;17777;48.770;8.944;2023-07-31T06:45:43;22.50;46.20
31129;DHT22;17777;48.770;8.944;2023-07-31T06:48:09;22.50;46.20
31129;DHT22;17777;48.770;8.944;2023-07-31T06:50:34;22.60;46.20
31129;DHT22;17777;48.770;8.944;2023-07-31T06:53:00;22.60;46.20
31129;DHT22;17777;48.770;8.944;2023-07-31T06:55:26;22.70;46.20
31129;DHT22;17777;48.770;8.944;2023-07-31T06:57:54;22.70;46.20
31129;DHT22;17777;48.770;8.944;2023-07-31T07:00:22;22.80;46.20
31129;DHT22;17777;48.770;8.944;2023-07-31T07:02:48;22.80;46.20
31129;DHT22;17777;48.770;8.944;2023-07-31T07:05:16;22.90;46.10
31129;DHT22;17777;48.770;8.944;2023-07-31T07:07:42;22.90;46.20
31129;DHT22;17777;48.770;8.944;2023-07-31T07:10:09;23.00;46.20
31129;DHT22;17777;48.770;8.944;2023-07-31T07:12:35;23.00;46.20
31129;DHT22;17777;48.770;8.944;2023-07-31T07:15:01;23.10;46.20
31129;DHT22;17777;48.770;8.944;2023-07-31T07:17:29;23.10;46.20
31129;DHT22;17777;48.770;8.944;2023-07-31T07:19:59;23.10;46.10
31129;DHT22;17777;48.770;8.944;2023-07-31T07:22:26;23.20;46.00
31129;DHT22;17777;48.770;8.944;2023-07-31T07:24:52;23.20;46.00
31129;DHT22;17777;48.770;8.944;2023-07-31T07:27:18;23.30;46.10
31129;DHT22;17777;48.770;8.944;2023-07-31T07:29:45;23.30;46.00
31129;DHT22;17777;48.770;8.944;2023-07-31T07:32:12;23.40;46.00
31129;DHT22;17777;48.770;8.944;2023-07-31T07:34:38;23.40;46.00
31129;DHT22;17777;48.770;8.944;2023-07-31T07:37:04;23.40;46.00
31129;DHT22;17777;48.770;8.944;2023-07-31T07:39:30;23.40;46.00
31129;DHT22;17777;48.770;8.944;2023-07-31T07:41:55;23.50;46.00
31129;DHT22;17777;48.770;8.944;2023-07-31T07:44:21;23.50;45.90
31129;DHT22;17777;48.770;8.944;2023-07-31T07:46:47;23.50;45.80
31129;DHT22;17777;48.770;8.944;2023-07-31T07:49:13;23.50;45.80
31129;DHT22;17777;48.770;8.944;2023-07-31T07:51:38;23.60;45.70
31129;DHT22;17777;48.770;8.944;2023-07-31T07:54:04;23.60;45.70
31129;DHT22;17777;48.770;8.944;2023-07-31T07:56:30;23.60;45.50
31129;DHT22;17777;48.770;8.944;2023-07-31T07:58:56;23.70;45.60
31129;DHT22;17777;48.770;8.944;2023-07-31T08:01:21;23.80;45.60
31129;DHT22;17777;48.770;8.944;2023-07-31T08:03:48;23.80;45.50
31129;DHT22;17777;48.770;8.944;2023-07-31T08:06:14;23.80;45.50
31129;DHT22;17777;48.770;8.944;2023-07-31T08:08:40;23.90;45.70
31129;DHT22;17777;48.770;8.944;2023-07-31T08:11:06;23.90;45.60
31129;DHT22;17777;48.770;8.944;2023-07-31T08:13:32;24.00;45.70
31129;DHT22;17777;48.770;8.944;2023-07-31T08:15:58;24.00;45.60
31129;DHT22;17777;48.770;8.944;2023-07-31T08:18:23;24.10;45.60
31129;DHT22;17777;48.770;8.944;2023-07-31T08:20:49;24.10;45.60
31129;DHT22;17777;48.770;8.944;2023-07-31T08:23:15;24.20;45.60
31129;DHT22;17777;48.770;8.944;2023-07-31T08:25:41;24.20;45.50
31129;DHT22;17777;48.770;8.944;2023-07-31T08:28:07;24.30;45.60
31129;DHT22;17777;48.770;8.944;2023-07-31T08:30:33;24.40;45.50
31129;DHT22;17777;48.770;8.944;2023-07-31T08:32:59;24.40;45.30
31129;DHT22;17777;48.770;8.944;2023-07-31T08:35:26;24.50;45.30
31129;DHT22;17777;48.770;8.944;2023-07-31T08:37:53;24.60;45.20
31129;DHT22;17777;48.770;8.944;2023-07-31T08:40:19;24.60;45.10
31129;DHT22;17777;48.770;8.944;2023-07-31T08:42:49;24.60;45.00
31129;DHT22;17777;48.770;8.944;2023-07-31T08:45:19;24.60;45.00
31129;DHT22;17777;48.770;8.944;2023-07-31T08:47:47;24.70;44.80
31129;DHT22;17777;48.770;8.944;2023-07-31T08:50:16;24.70;44.70
31129;DHT22;17777;48.770;8.944;2023-07-31T08:52:43;24.80;44.80
31129;DHT22;17777;48.770;8.944;2023-07-31T08:55:09;24.80;45.40
31129;DHT22;17777;48.770;8.944;2023-07-31T08:57:37;24.90;44.80
31129;DHT22;17777;48.770;8.944;2023-07-31T09:00:08;24.90;45.40
31129;DHT22;17777;48.770;8.944;2023-07-31T09:05:32;25.00;44.50
31129;DHT22;17777;48.770;8.944;2023-07-31T09:08:00;25.10;44.40
31129;DHT22;17777;48.770;8.944;2023-07-31T09:10:28;25.20;44.20
31129;DHT22;17777;48.770;8.944;2023-07-31T09:12:54;25.20;44.20
31129;DHT22;17777;48.770;8.944;2023-07-31T09:15:22;25.30;44.20
31129;DHT22;17777;48.770;8.944;2023-07-31T09:17:59;25.30;44.00
31129;DHT22;17777;48.770;8.944;2023-07-31T09:20:26;25.40;43.50
31129;DHT22;17777;48.770;8.944;2023-07-31T09:22:52;25.40;43.70
31129;DHT22;17777;48.770;8.944;2023-07-31T09:25:23;25.40;43.50
31129;DHT22;17777;48.770;8.944;2023-07-31T09:28:14;25.40;43.40
31129;DHT22;17777;48.770;8.944;2023-07-31T09:30:51;25.40;43.20
31129;DHT22;17777;48.770;8.944;2023-07-31T09:33:18;25.40;43.10
31129;DHT22;17777;48.770;8.944;2023-07-31T09:35:44;25.40;43.30
31129;DHT22;17777;48.770;8.944;2023-07-31T09:38:12;25.40;43.30
31129;DHT22;17777;48.770;8.944;2023-07-31T09:40:44;25.40;43.40
31129;DHT22;17777;48.770;8.944;2023-07-31T09:43:12;25.40;43.20
31129;DHT22;17777;48.770;8.944;2023-07-31T09:45:42;25.40;43.40
31129;DHT22;17777;48.770;8.944;2023-07-31T09:48:18;25.40;43.30
31129;DHT22;17777;48.770;8.944;2023-07-31T09:50:46;25.40;43.10
31129;DHT22;17777;48.770;8.944;2023-07-31T09:53:13;25.50;43.20
31129;DHT22;17777;48.770;8.944;2023-07-31T09:55:40;25.50;43.30
31129;DHT22;17777;48.770;8.944;2023-07-31T09:58:08;25.50;43.10
31129;DHT22;17777;48.770;8.944;2023-07-31T10:00:35;25.50;42.90
31129;DHT22;17777;48.770;8.944;2023-07-31T10:03:05;25.60;43.10
31129;DHT22;17777;48.770;8.944;2023-07-31T10:05:42;25.60;42.90
31129;DHT22;17777;48.770;8.944;2023-07-31T10:08:14;25.60;42.70
31129;DHT22;17777;48.770;8.944;2023-07-31T10:10:44;25.60;43.50
31129;DHT22;17777;48.770;8.944;2023-07-31T10:13:14;25.60;42.70
31129;DHT22;17777;48.770;8.944;2023-07-31T10:15:40;25.70;43.40
31129;DHT22;17777;48.770;8.944;2023-07-31T10:18:07;25.70;42.90
31129;DHT22;17777;48.770;8.944;2023-07-31T10:20:34;25.70;42.90
31129;DHT22;17777;48.770;8.944;2023-07-31T10:23:00;25.80;43.00
31129;DHT22;17777;48.770;8.944;2023-07-31T10:25:26;25.80;43.00
31129;DHT22;17777;48.770;8.944;2023-07-31T10:27:53;25.90;43.00
31129;DHT22;17777;48.770;8.944;2023-07-31T10:30:22;25.90;42.90
31129;DHT22;17777;48.770;8.944;2023-07-31T10:32:51;25.90;42.60
31129;DHT22;17777;48.770;8.944;2023-07-31T10:35:18;26.00;42.80
31129;DHT22;17777;48.770;8.944;2023-07-31T10:37:47;26.00;42.70
31129;DHT22;17777;48.770;8.944;2023-07-31T10:40:19;26.00;42.70
31129;DHT22;17777;48.770;8.944;2023-07-31T10:42:55;26.10;42.40
31129;DHT22;17777;48.770;8.944;2023-07-31T10:48:23;26.20;42.30
31129;DHT22;17777;48.770;8.944;2023-07-31T10:50:51;26.30;42.00
31129;DHT22;17777;48.770;8.944;2023-07-31T10:53:33;26.30;42.50
31129;DHT22;17777;48.770;8.944;2023-07-31T10:58:26;26.30;42.20
31129;DHT22;17777;48.770;8.944;2023-07-31T11:00:57;26.40;42.30
31129;DHT22;17777;48.770;8.944;2023-07-31T11:06:17;26.40;41.60
31129;DHT22;17777;48.770;8.944;2023-07-31T11:08:45;26.50;42.00
31129;DHT22;17777;48.770;8.944;2023-07-31T11:11:14;26.50;41.90
31129;DHT22;17777;48.770;8.944;2023-07-31T11:13:54;26.50;41.70
31129;DHT22;17777;48.770;8.944;2023-07-31T11:16:23;26.50;41.40
31129;DHT22;17777;48.770;8.944;2023-07-31T11:18:50;26.60;41.70
31129;DHT22;17777;48.770;8.944;2023-07-31T11:21:21;26.60;41.60
31129;DHT22;17777;48.770;8.944;2023-07-31T11:23:50;26.60;41.40
31129;DHT22;17777;48.770;8.944;2023-07-31T11:26:17;26.60;41.60
31129;DHT22;17777;48.770;8.944;2023-07-31T11:28:46;26.60;41.60
31129;DHT22;17777;48.770;8.944;2023-07-31T11:31:13;26.60;41.10
31129;DHT22;17777;48.770;8.944;2023-07-31T11:33:39;26.60;41.30
31129;DHT22;17777;48.770;8.944;2023-07-31T11:36:05;26.60;41.40
31129;DHT22;17777;48.770;8.944;2023-07-31T11:38:33;26.60;41.30
31129;DHT22;17777;48.770;8.944;2023-07-31T11:41:04;26.70;41.30
31129;DHT22;17777;48.770;8.944;2023-07-31T11:43:33;26.70;41.10
31129;DHT22;17777;48.770;8.944;2023-07-31T11:46:02;26.60;40.90
31129;DHT22;17777;48.770;8.944;2023-07-31T11:48:30;26.60;41.20
31129;DHT22;17777;48.770;8.944;2023-07-31T11:51:00;26.60;41.30
31129;DHT22;17777;48.770;8.944;2023-07-31T11:53:35;26.60;41.20
31129;DHT22;17777;48.770;8.944;2023-07-31T11:56:05;26.60;41.90
31129;DHT22;17777;48.770;8.944;2023-07-31T11:58:34;26.60;41.10
31129;DHT22;17777;48.770;8.944;2023-07-31T12:01:00;26.60;41.20
31129;DHT22;17777;48.770;8.944;2023-07-31T12:03:27;26.60;41.10
31129;DHT22;17777;48.770;8.944;2023-07-31T12:05:53;26.70;41.10
31129;DHT22;17777;48.770;8.944;2023-07-31T12:08:21;26.70;41.00
31129;DHT22;17777;48.770;8.944;2023-07-31T12:10:51;26.70;41.00
31129;DHT22;17777;48.770;8.944;2023-07-31T12:13:23;26.60;40.80
31129;DHT22;17777;48.770;8.944;2023-07-31T12:15:55;26.70;40.50
31129;DHT22;17777;48.770;8.944;2023-07-31T12:18:24;26.70;40.60
31129;DHT22;17777;48.770;8.944;2023-07-31T12:20:56;26.70;40.70
31129;DHT22;17777;48.770;8.944;2023-07-31T12:23:31;26.70;40.60
31129;DHT22;17777;48.770;8.944;2023-07-31T12:26:15;26.70;40.50
31129;DHT22;17777;48.770;8.944;2023-07-31T12:28:46;26.60;40.50
31129;DHT22;17777;48.770;8.944;2023-07-31T12:31:18;26.60;40.50
31129;DHT22;17777;48.770;8.944;2023-07-31T12:33:47;26.70;40.50
31129;DHT22;17777;48.770;8.944;2023-07-31T12:36:22;26.70;40.50
31129;DHT22;17777;48.770;8.944;2023-07-31T12:38:50;26.60;40.30
31129;DHT22;17777;48.770;8.944;2023-07-31T12:41:16;26.60;40.50
31129;DHT22;17777;48.770;8.944;2023-07-31T12:43:43;26.60;40.60
31129;DHT22;17777;48.770;8.944;2023-07-31T12:46:10;26.60;40.70
31129;DHT22;17777;48.770;8.944;2023-07-31T12:48:37;26.60;40.70
31129;DHT22;17777;48.770;8.944;2023-07-31T12:51:03;26.60;40.60
31129;DHT22;17777;48.770;8.944;2023-07-31T12:53:30;26.60;40.70
31129;DHT22;17777;48.770;8.944;2023-07-31T12:55:56;26.60;40.60
31129;DHT22;17777;48.770;8.944;2023-07-31T12:58:22;26.60;40.70
31129;DHT22;17777;48.770;8.944;2023-07-31T13:00:48;26.60;40.70
31129;DHT22;17777;48.770;8.944;2023-07-31T13:03:14;26.70;40.60
31129;DHT22;17777;48.770;8.944;2023-07-31T13:05:40;26.70;40.40
31129;DHT22;17777;48.770;8.944;2023-07-31T13:08:06;26.70;40.50
31129;DHT22;17777;48.770;8.944;2023-07-31T13:10:31;26.70;40.50
31129;DHT22;17777;48.770;8.944;2023-07-31T13:12:57;26.70;40.40
31129;DHT22;17777;48.770;8.944;2023-07-31T13:15:23;26.70;40.40
31129;DHT22;17777;48.770;8.944;2023-07-31T13:17:49;26.70;40.40
31129;DHT22;17777;48.770;8.944;2023-07-31T13:20:15;26.80;40.50
31129;DHT22;17777;48.770;8.944;2023-07-31T13:22:40;26.80;40.60
31129;DHT22;17777;48.770;8.944;2023-07-31T13:25:07;26.80;40.70
31129;DHT22;17777;48.770;8.944;2023-07-31T13:27:33;26.90;40.80
31129;DHT22;17777;48.770;8.944;2023-07-31T13:29:59;26.90;40.90
31129;DHT22;17777;48.770;8.944;2023-07-31T13:32:25;27.00;41.00
31129;DHT22;17777;48.770;8.944;2023-07-31T13:34:51;27.10;41.00
31129;DHT22;17777;48.770;8.944;2023-07-31T13:37:17;27.10;41.10
31129;DHT22;17777;48.770;8.944;2023-07-31T13:39:43;27.20;41.10
31129;DHT22;17777;48.770;8.944;2023-07-31T13:42:10;27.20;41.00
31129;DHT22;17777;48.770;8.944;2023-07-31T13:44:41;27.30;40.90
31129;DHT22;17777;48.770;8.944;2023-07-31T13:47:08;27.40;40.70
31129;DHT22;17777;48.770;8.944;2023-07-31T13:49:34;27.40;40.70
31129;DHT22;17777;48.770;8.944;2023-07-31T13:52:01;27.40;40.70
31129;DHT22;17777;48.770;8.944;2023-07-31T13:54:27;27.50;40.60
31129;DHT22;17777;48.770;8.944;2023-07-31T13:56:53;27.50;40.40
31129;DHT22;17777;48.770;8.944;2023-07-31T13:59:19;27.50;40.50
31129;DHT22;17777;48.770;8.944;2023-07-31T14:01:46;27.50;40.40
31129;DHT22;17777;48.770;8.944;2023-07-31T14:04:12;27.50;40.30
31129;DHT22;17777;48.770;8.944;2023-07-31T14:06:38;27.50;41.00
31129;DHT22;17777;48.770;8.944;2023-07-31T14:09:03;27.50;40.30
31129;DHT22;17777;48.770;8.944;2023-07-31T14:11:33;27.60;40.30
31129;DHT22;17777;48.770;8.944;2023-07-31T14:13:59;27.60;40.10
31129;DHT22;17777;48.770;8.944;2023-07-31T14:16:27;27.50;40.10
31129;DHT22;17777;48.770;8.944;2023-07-31T14:18:54;27.60;40.20
31129;DHT22;17777;48.770;8.944;2023-07-31T14:21:20;27.60;40.20
31129;DHT22;17777;48.770;8.944;2023-07-31T14:23:46;27.60;40.00
31129;DHT22;17777;48.770;8.944;2023-07-31T14:26:12;27.60;40.10
31129;DHT22;17777;48.770;8.944;2023-07-31T14:28:38;27.60;40.00
31129;DHT22;17777;48.770;8.944;2023-07-31T14:31:03;27.60;39.90
31129;DHT22;17777;48.770;8.944;2023-07-31T14:33:29;27.60;39.90
31129;DHT22;17777;48.770;8.944;2023-07-31T14:35:55;27.60;40.00
31129;DHT22;17777;48.770;8.944;2023-07-31T14:38:21;27.60;40.10
31129;DHT22;17777;48.770;8.944;2023-07-31T14:40:47;27.60;40.10
31129;DHT22;17777;48.770;8.944;2023-07-31T14:43:13;27.60;40.10
31129;DHT22;17777;48.770;8.944;2023-07-31T14:45:38;27.70;40.10
31129;DHT22;17777;48.770;8.944;2023-07-31T14:48:04;27.70;40.00
31129;DHT22;17777;48.770;8.944;2023-07-31T14:50:30;27.70;40.00
31129;DHT22;17777;48.770;8.944;2023-07-31T14:52:56;27.80;40.00
31129;DHT22;17777;48.770;8.944;2023-07-31T14:55:21;27.70;39.70
31129;DHT22;17777;48.770;8.944;2023-07-31T14:57:47;27.80;39.60
31129;DHT22;17777;48.770;8.944;2023-07-31T15:00:14;27.70;39.40
31129;DHT22;17777;48.770;8.944;2023-07-31T15:02:40;27.80;39.20
31129;DHT22;17777;48.770;8.944;2023-07-31T15:05:07;27.80;39.40
31129;DHT22;17777;48.770;8.944;2023-07-31T15:07:33;27.80;39.40
31129;DHT22;17777;48.770;8.944;2023-07-31T15:10:00;27.70;39.30
31129;DHT22;17777;48.770;8.944;2023-07-31T15:12:27;27.70;39.30
31129;DHT22;17777;48.770;8.944;2023-07-31T15:14:53;27.70;39.20
31129;DHT22;17777;48.770;8.944;2023-07-31T15:17:19;27.80;39.20
31129;DHT22;17777;48.770;8.944;2023-07-31T15:19:45;27.70;39.20
31129;DHT22;17777;48.770;8.944;2023-07-31T15:22:11;27.70;39.20
31129;DHT22;17777;48.770;8.944;2023-07-31T15:24:36;27.70;39.30
31129;DHT22;17777;48.770;8.944;2023-07-31T15:27:02;27.70;39.30
31129;DHT22;17777;48.770;8.944;2023-07-31T15:29:29;27.70;39.40
31129;DHT22;17777;48.770;8.944;2023-07-31T15:31:55;27.80;39.30
31129;DHT22;17777;48.770;8.944;2023-07-31T15:34:21;27.80;39.30
31129;DHT22;17777;48.770;8.944;2023-07-31T15:36:47;27.80;39.30
31129;DHT22;17777;48.770;8.944;2023-07-31T15:39:13;27.80;39.20
31129;DHT22;17777;48.770;8.944;2023-07-31T15:41:40;27.80;39.20
31129;DHT22;17777;48.770;8.944;2023-07-31T15:44:07;27.80;39.30